Aérodrome :
LOGIN :

S'inscrire | Disclaimer

   EN    FR    IT 

 










Légende :    VFR   VFR Marginal   IFR   IFR Intensif   IFR Très Intensif
Visi : 
Plafond : 
>= 8 km
>= 3000ft
5 à 8 km
1000 à 3000 ft
1500m à 5 km
500 à 1000 ft
800 à 1500m
200 à 500 ft
< 800m
< 200 ft
Symboles :   Orages  Brouillard  Fortes neiges  Fortes précipitations  Vent > 20 kt
SIGMETs :   Divers  Orages  Givrage  Turbulence  Onde Orograph.  Cendres Volcan.







- Altitude de l'aérodrome : 124 ft
- Code IATA : RNS
- Voir les cartes d'approche


LFRN - Rennes

DERNIER METAR :
  • 161530Z AUTO 18007KT 160V230 CAVOK 15/06 Q1023 NOSIG

METARs EXPIRÉS :
  • 161500Z AUTO 18007KT 150V210 CAVOK 15/06 Q1023 NOSIG
  • 161430Z AUTO 16005KT 130V190 CAVOK 14/06 Q1024 NOSIG
  • 161400Z AUTO VRB02KT CAVOK 14/08 Q1024 NOSIG
  • 161330Z AUTO VRB03KT CAVOK 13/08 Q1024 NOSIG
  • 161300Z AUTO 16003KT 8000 NSC 11/08 Q1025 NOSIG

TAF TAF LFRN
Valide du 16 à 12h jusqu'au 17 à 12h UTC


161100Z 1612/1712 17005KT 0700 FG VV///
BECMG 1612/1613 9999 NSW SCT010
BECMG 1620/1623 0800 BCFG
PROB40 1623/1704 0300 FG VV///
BECMG 1704/1706 15010KT
BECMG 1706/1709 9999 NSW BKN007
BECMG 1710/1712 20010KT
ATIS : +33 2 99 67 72 50
Pas de NOTAMs connus pour ce terrain.



MET'MAP, la Météo Aéronautique d'un coup d'oeil ! - Copyright ORBIFLY Décembre 2007 - Disclaimer

ORBIFLY MET'MAP TEAM :

Programmation & Développement : Alexandra Zaïnal
Conception & Développement : Baudouin d'Aumeries
Co-Programmation & Développement : Marc-Olivier Méhu
Soutien technique & logistique : Manuel Goepfert

Contact : metmap@orbifly.com




SOURCES & CREDITS :

   NOAA